sensor_id;sensor_type;location;lat;lon;timestamp;P1;durP1;ratioP1;P2;durP2;ratioP2
45065;SDS011;30830;53.704;10.004;2022-08-02T00:01:27;4.63;;;2.00;;
45065;SDS011;30830;53.704;10.004;2022-08-02T00:03:53;4.88;;;1.90;;
45065;SDS011;30830;53.704;10.004;2022-08-02T00:06:18;2.50;;;1.58;;
45065;SDS011;30830;53.704;10.004;2022-08-02T00:08:44;5.53;;;1.75;;
45065;SDS011;30830;53.704;10.004;2022-08-02T00:11:10;2.75;;;1.50;;
45065;SDS011;30830;53.704;10.004;2022-08-02T00:13:35;3.90;;;2.00;;
45065;SDS011;30830;53.704;10.004;2022-08-02T00:16:01;6.82;;;1.95;;
45065;SDS011;30830;53.704;10.004;2022-08-02T00:18:27;7.05;;;2.17;;
45065;SDS011;30830;53.704;10.004;2022-08-02T00:20:53;2.50;;;1.60;;
45065;SDS011;30830;53.704;10.004;2022-08-02T00:23:18;3.97;;;1.60;;
45065;SDS011;30830;53.704;10.004;2022-08-02T00:25:44;5.32;;;1.80;;
45065;SDS011;30830;53.704;10.004;2022-08-02T00:28:10;2.38;;;1.88;;
45065;SDS011;30830;53.704;10.004;2022-08-02T00:30:35;5.38;;;1.70;;
45065;SDS011;30830;53.704;10.004;2022-08-02T00:33:01;3.42;;;2.15;;
45065;SDS011;30830;53.704;10.004;2022-08-02T00:35:29;2.72;;;2.10;;
45065;SDS011;30830;53.704;10.004;2022-08-02T00:37:55;6.28;;;1.98;;
45065;SDS011;30830;53.704;10.004;2022-08-02T00:40:21;2.70;;;1.85;;
45065;SDS011;30830;53.704;10.004;2022-08-02T00:43:04;4.85;;;1.50;;
45065;SDS011;30830;53.704;10.004;2022-08-02T00:45:34;2.70;;;2.30;;
45065;SDS011;30830;53.704;10.004;2022-08-02T00:48:02;2.45;;;1.80;;
45065;SDS011;30830;53.704;10.004;2022-08-02T00:50:29;3.53;;;2.00;;
45065;SDS011;30830;53.704;10.004;2022-08-02T00:52:55;3.35;;;1.45;;
45065;SDS011;30830;53.704;10.004;2022-08-02T00:55:21;2.33;;;1.73;;
45065;SDS011;30830;53.704;10.004;2022-08-02T00:57:47;3.65;;;2.13;;
45065;SDS011;30830;53.704;10.004;2022-08-02T01:00:13;4.70;;;2.10;;
45065;SDS011;30830;53.704;10.004;2022-08-02T01:02:39;4.45;;;1.70;;
45065;SDS011;30830;53.704;10.004;2022-08-02T01:05:05;3.90;;;1.90;;
45065;SDS011;30830;53.704;10.004;2022-08-02T01:07:31;3.60;;;1.77;;
45065;SDS011;30830;53.704;10.004;2022-08-02T01:09:57;2.83;;;1.98;;
45065;SDS011;30830;53.704;10.004;2022-08-02T01:12:24;3.53;;;2.20;;
45065;SDS011;30830;53.704;10.004;2022-08-02T01:14:50;5.32;;;2.05;;
45065;SDS011;30830;53.704;10.004;2022-08-02T01:22:50;4.40;;;2.20;;
45065;SDS011;30830;53.704;10.004;2022-08-02T01:30:53;4.47;;;2.22;;
45065;SDS011;30830;53.704;10.004;2022-08-02T01:33:21;6.38;;;2.83;;
45065;SDS011;30830;53.704;10.004;2022-08-02T01:35:50;4.82;;;2.17;;
45065;SDS011;30830;53.704;10.004;2022-08-02T01:38:27;3.92;;;2.10;;
45065;SDS011;30830;53.704;10.004;2022-08-02T01:40:59;5.30;;;1.88;;
45065;SDS011;30830;53.704;10.004;2022-08-02T01:43:27;1.63;;;1.48;;
45065;SDS011;30830;53.704;10.004;2022-08-02T01:45:55;4.53;;;2.55;;
45065;SDS011;30830;53.704;10.004;2022-08-02T01:48:22;3.15;;;2.10;;
45065;SDS011;30830;53.704;10.004;2022-08-02T01:50:49;6.57;;;2.40;;
45065;SDS011;30830;53.704;10.004;2022-08-02T01:53:17;5.25;;;1.85;;
45065;SDS011;30830;53.704;10.004;2022-08-02T01:55:45;1.95;;;1.52;;
45065;SDS011;30830;53.704;10.004;2022-08-02T01:58:15;3.67;;;2.08;;
45065;SDS011;30830;53.704;10.004;2022-08-02T02:00:43;4.65;;;1.80;;
45065;SDS011;30830;53.704;10.004;2022-08-02T02:03:17;3.17;;;2.10;;
45065;SDS011;30830;53.704;10.004;2022-08-02T02:05:46;6.00;;;2.22;;
45065;SDS011;30830;53.704;10.004;2022-08-02T02:08:13;4.63;;;2.15;;
45065;SDS011;30830;53.704;10.004;2022-08-02T02:10:42;4.43;;;1.90;;
45065;SDS011;30830;53.704;10.004;2022-08-02T02:13:13;3.58;;;2.38;;
45065;SDS011;30830;53.704;10.004;2022-08-02T02:15:47;2.85;;;2.10;;
45065;SDS011;30830;53.704;10.004;2022-08-02T02:18:16;4.78;;;2.13;;
45065;SDS011;30830;53.704;10.004;2022-08-02T02:20:45;3.78;;;2.40;;
45065;SDS011;30830;53.704;10.004;2022-08-02T02:23:11;5.13;;;2.65;;
45065;SDS011;30830;53.704;10.004;2022-08-02T02:25:38;3.83;;;2.50;;
45065;SDS011;30830;53.704;10.004;2022-08-02T02:28:10;4.57;;;2.58;;
45065;SDS011;30830;53.704;10.004;2022-08-02T02:30:42;9.38;;;2.83;;
45065;SDS011;30830;53.704;10.004;2022-08-02T02:33:12;3.35;;;2.00;;
45065;SDS011;30830;53.704;10.004;2022-08-02T02:35:41;7.38;;;2.67;;
45065;SDS011;30830;53.704;10.004;2022-08-02T02:38:08;5.95;;;2.53;;
45065;SDS011;30830;53.704;10.004;2022-08-02T02:40:37;6.93;;;2.53;;
45065;SDS011;30830;53.704;10.004;2022-08-02T02:43:04;3.97;;;2.13;;
45065;SDS011;30830;53.704;10.004;2022-08-02T02:45:32;3.70;;;2.50;;
45065;SDS011;30830;53.704;10.004;2022-08-02T02:47:58;5.82;;;2.40;;
45065;SDS011;30830;53.704;10.004;2022-08-02T02:50:25;3.65;;;2.53;;
45065;SDS011;30830;53.704;10.004;2022-08-02T02:52:52;3.97;;;2.47;;
45065;SDS011;30830;53.704;10.004;2022-08-02T02:55:18;6.22;;;2.80;;
45065;SDS011;30830;53.704;10.004;2022-08-02T02:57:44;4.57;;;2.40;;
45065;SDS011;30830;53.704;10.004;2022-08-02T03:00:11;4.50;;;2.78;;
45065;SDS011;30830;53.704;10.004;2022-08-02T03:02:38;4.72;;;2.17;;
45065;SDS011;30830;53.704;10.004;2022-08-02T03:05:05;4.82;;;2.63;;
45065;SDS011;30830;53.704;10.004;2022-08-02T03:07:32;3.90;;;2.30;;
45065;SDS011;30830;53.704;10.004;2022-08-02T03:09:59;4.57;;;2.65;;
45065;SDS011;30830;53.704;10.004;2022-08-02T03:12:25;3.53;;;2.15;;
45065;SDS011;30830;53.704;10.004;2022-08-02T03:14:52;4.63;;;2.40;;
45065;SDS011;30830;53.704;10.004;2022-08-02T03:17:18;3.75;;;2.28;;
45065;SDS011;30830;53.704;10.004;2022-08-02T03:19:44;5.15;;;2.67;;
45065;SDS011;30830;53.704;10.004;2022-08-02T03:22:10;4.88;;;2.47;;
45065;SDS011;30830;53.704;10.004;2022-08-02T03:24:36;7.47;;;2.20;;
45065;SDS011;30830;53.704;10.004;2022-08-02T03:27:02;3.20;;;2.30;;
45065;SDS011;30830;53.704;10.004;2022-08-02T03:29:28;2.30;;;2.05;;
45065;SDS011;30830;53.704;10.004;2022-08-02T03:31:53;2.10;;;1.83;;
45065;SDS011;30830;53.704;10.004;2022-08-02T03:34:20;7.30;;;2.38;;
45065;SDS011;30830;53.704;10.004;2022-08-02T03:36:47;5.68;;;2.28;;
45065;SDS011;30830;53.704;10.004;2022-08-02T03:39:15;2.92;;;1.90;;
45065;SDS011;30830;53.704;10.004;2022-08-02T03:41:43;6.10;;;2.50;;
45065;SDS011;30830;53.704;10.004;2022-08-02T03:44:11;4.78;;;2.78;;
45065;SDS011;30830;53.704;10.004;2022-08-02T03:46:37;4.97;;;2.42;;
45065;SDS011;30830;53.704;10.004;2022-08-02T03:49:05;3.88;;;2.65;;
45065;SDS011;30830;53.704;10.004;2022-08-02T03:51:32;4.65;;;2.17;;
45065;SDS011;30830;53.704;10.004;2022-08-02T03:53:59;3.22;;;2.08;;
45065;SDS011;30830;53.704;10.004;2022-08-02T03:56:27;3.67;;;1.90;;
45065;SDS011;30830;53.704;10.004;2022-08-02T03:59:10;2.47;;;1.70;;
45065;SDS011;30830;53.704;10.004;2022-08-02T04:01:37;4.80;;;2.70;;
45065;SDS011;30830;53.704;10.004;2022-08-02T04:04:03;4.18;;;2.60;;
45065;SDS011;30830;53.704;10.004;2022-08-02T04:06:29;3.92;;;1.73;;
45065;SDS011;30830;53.704;10.004;2022-08-02T04:08:55;5.63;;;2.25;;
45065;SDS011;30830;53.704;10.004;2022-08-02T04:11:21;5.30;;;2.70;;
45065;SDS011;30830;53.704;10.004;2022-08-02T04:13:55;3.83;;;1.77;;
45065;SDS011;30830;53.704;10.004;2022-08-02T04:16:31;3.42;;;1.85;;
45065;SDS011;30830;53.704;10.004;2022-08-02T04:19:04;3.20;;;2.28;;
45065;SDS011;30830;53.704;10.004;2022-08-02T04:21:32;3.72;;;2.60;;
45065;SDS011;30830;53.704;10.004;2022-08-02T04:24:01;3.75;;;2.58;;
45065;SDS011;30830;53.704;10.004;2022-08-02T04:26:28;6.07;;;2.80;;
45065;SDS011;30830;53.704;10.004;2022-08-02T04:28:55;4.03;;;2.42;;
45065;SDS011;30830;53.704;10.004;2022-08-02T04:31:22;4.97;;;2.38;;
45065;SDS011;30830;53.704;10.004;2022-08-02T04:33:47;4.90;;;2.33;;
45065;SDS011;30830;53.704;10.004;2022-08-02T04:36:14;7.07;;;2.80;;
45065;SDS011;30830;53.704;10.004;2022-08-02T04:38:40;5.25;;;3.17;;
45065;SDS011;30830;53.704;10.004;2022-08-02T04:41:07;8.02;;;2.65;;
45065;SDS011;30830;53.704;10.004;2022-08-02T04:43:32;3.65;;;2.38;;
45065;SDS011;30830;53.704;10.004;2022-08-02T04:45:58;4.55;;;2.90;;
45065;SDS011;30830;53.704;10.004;2022-08-02T04:48:26;4.47;;;2.72;;
45065;SDS011;30830;53.704;10.004;2022-08-02T04:50:52;4.65;;;2.90;;
45065;SDS011;30830;53.704;10.004;2022-08-02T04:53:18;4.13;;;2.35;;
45065;SDS011;30830;53.704;10.004;2022-08-02T04:55:44;5.43;;;2.78;;
45065;SDS011;30830;53.704;10.004;2022-08-02T04:58:10;6.47;;;3.25;;
45065;SDS011;30830;53.704;10.004;2022-08-02T05:00:35;3.10;;;2.38;;
45065;SDS011;30830;53.704;10.004;2022-08-02T05:03:01;6.15;;;2.95;;
45065;SDS011;30830;53.704;10.004;2022-08-02T05:05:26;4.30;;;2.95;;
45065;SDS011;30830;53.704;10.004;2022-08-02T05:07:52;5.57;;;3.33;;
45065;SDS011;30830;53.704;10.004;2022-08-02T05:10:18;7.07;;;3.38;;
45065;SDS011;30830;53.704;10.004;2022-08-02T05:12:44;4.80;;;2.83;;
45065;SDS011;30830;53.704;10.004;2022-08-02T05:15:10;4.78;;;3.40;;
45065;SDS011;30830;53.704;10.004;2022-08-02T05:17:37;4.75;;;2.58;;
45065;SDS011;30830;53.704;10.004;2022-08-02T05:20:03;3.92;;;2.97;;
45065;SDS011;30830;53.704;10.004;2022-08-02T05:22:30;3.42;;;2.72;;
45065;SDS011;30830;53.704;10.004;2022-08-02T05:24:56;4.95;;;2.70;;
45065;SDS011;30830;53.704;10.004;2022-08-02T05:27:21;5.43;;;2.75;;
45065;SDS011;30830;53.704;10.004;2022-08-02T05:29:47;8.13;;;2.78;;
45065;SDS011;30830;53.704;10.004;2022-08-02T05:32:15;6.45;;;3.63;;
45065;SDS011;30830;53.704;10.004;2022-08-02T05:34:41;5.03;;;3.30;;
45065;SDS011;30830;53.704;10.004;2022-08-02T05:37:07;7.60;;;4.00;;
45065;SDS011;30830;53.704;10.004;2022-08-02T05:39:32;5.95;;;2.85;;
45065;SDS011;30830;53.704;10.004;2022-08-02T05:41:58;5.57;;;3.65;;
45065;SDS011;30830;53.704;10.004;2022-08-02T05:44:24;5.53;;;3.95;;
45065;SDS011;30830;53.704;10.004;2022-08-02T05:46:49;7.47;;;3.70;;
45065;SDS011;30830;53.704;10.004;2022-08-02T05:49:15;6.30;;;3.53;;
45065;SDS011;30830;53.704;10.004;2022-08-02T05:57:05;7.82;;;4.03;;
45065;SDS011;30830;53.704;10.004;2022-08-02T05:59:39;11.02;;;4.32;;
45065;SDS011;30830;53.704;10.004;2022-08-02T06:02:21;10.70;;;5.07;;
45065;SDS011;30830;53.704;10.004;2022-08-02T06:05:10;10.60;;;4.60;;
45065;SDS011;30830;53.704;10.004;2022-08-02T06:07:39;11.80;;;5.35;;
45065;SDS011;30830;53.704;10.004;2022-08-02T06:10:07;6.30;;;3.88;;
45065;SDS011;30830;53.704;10.004;2022-08-02T06:12:36;7.72;;;4.97;;
45065;SDS011;30830;53.704;10.004;2022-08-02T06:15:12;7.00;;;4.57;;
45065;SDS011;30830;53.704;10.004;2022-08-02T06:17:39;12.98;;;4.70;;
45065;SDS011;30830;53.704;10.004;2022-08-02T06:20:05;9.55;;;4.93;;
45065;SDS011;30830;53.704;10.004;2022-08-02T06:22:32;10.32;;;5.07;;
45065;SDS011;30830;53.704;10.004;2022-08-02T06:24:59;9.07;;;4.25;;
45065;SDS011;30830;53.704;10.004;2022-08-02T06:27:26;7.72;;;3.40;;
45065;SDS011;30830;53.704;10.004;2022-08-02T06:29:53;10.57;;;4.25;;
45065;SDS011;30830;53.704;10.004;2022-08-02T06:32:20;7.10;;;3.30;;
45065;SDS011;30830;53.704;10.004;2022-08-02T06:34:46;8.10;;;3.65;;
45065;SDS011;30830;53.704;10.004;2022-08-02T06:39:43;6.40;;;3.47;;
45065;SDS011;30830;53.704;10.004;2022-08-02T06:42:12;9.60;;;3.60;;
45065;SDS011;30830;53.704;10.004;2022-08-02T06:44:41;6.55;;;3.33;;
45065;SDS011;30830;53.704;10.004;2022-08-02T06:47:07;6.90;;;2.88;;
45065;SDS011;30830;53.704;10.004;2022-08-02T06:49:33;5.63;;;2.60;;
45065;SDS011;30830;53.704;10.004;2022-08-02T06:51:58;4.38;;;2.58;;
45065;SDS011;30830;53.704;10.004;2022-08-02T06:54:24;7.88;;;3.22;;
45065;SDS011;30830;53.704;10.004;2022-08-02T06:56:50;7.07;;;3.33;;
45065;SDS011;30830;53.704;10.004;2022-08-02T06:59:16;7.43;;;2.78;;
45065;SDS011;30830;53.704;10.004;2022-08-02T07:01:41;6.38;;;3.22;;
45065;SDS011;30830;53.704;10.004;2022-08-02T07:04:08;3.60;;;2.50;;
45065;SDS011;30830;53.704;10.004;2022-08-02T07:06:33;6.28;;;2.75;;
45065;SDS011;30830;53.704;10.004;2022-08-02T07:08:59;6.75;;;2.85;;
45065;SDS011;30830;53.704;10.004;2022-08-02T07:11:25;7.53;;;4.00;;
45065;SDS011;30830;53.704;10.004;2022-08-02T07:13:50;6.45;;;3.00;;
45065;SDS011;30830;53.704;10.004;2022-08-02T07:16:16;8.73;;;2.70;;
45065;SDS011;30830;53.704;10.004;2022-08-02T07:18:42;6.05;;;2.35;;
45065;SDS011;30830;53.704;10.004;2022-08-02T07:21:07;6.15;;;2.15;;
45065;SDS011;30830;53.704;10.004;2022-08-02T07:23:33;4.75;;;3.00;;
45065;SDS011;30830;53.704;10.004;2022-08-02T07:25:59;5.50;;;2.40;;
45065;SDS011;30830;53.704;10.004;2022-08-02T07:28:25;6.57;;;2.42;;
45065;SDS011;30830;53.704;10.004;2022-08-02T07:30:50;5.38;;;2.40;;
45065;SDS011;30830;53.704;10.004;2022-08-02T07:33:16;7.75;;;2.63;;
45065;SDS011;30830;53.704;10.004;2022-08-02T07:35:42;8.32;;;1.80;;
45065;SDS011;30830;53.704;10.004;2022-08-02T07:38:07;6.28;;;2.15;;
45065;SDS011;30830;53.704;10.004;2022-08-02T07:40:33;6.18;;;1.95;;
45065;SDS011;30830;53.704;10.004;2022-08-02T07:43:00;8.20;;;1.75;;
45065;SDS011;30830;53.704;10.004;2022-08-02T07:45:25;7.25;;;2.10;;
45065;SDS011;30830;53.704;10.004;2022-08-02T07:47:51;4.75;;;1.85;;
45065;SDS011;30830;53.704;10.004;2022-08-02T07:50:18;8.60;;;2.22;;
45065;SDS011;30830;53.704;10.004;2022-08-02T07:52:45;6.60;;;2.30;;
45065;SDS011;30830;53.704;10.004;2022-08-02T07:55:12;8.02;;;2.47;;
45065;SDS011;30830;53.704;10.004;2022-08-02T07:57:38;6.10;;;2.20;;
45065;SDS011;30830;53.704;10.004;2022-08-02T08:00:05;7.88;;;2.00;;
45065;SDS011;30830;53.704;10.004;2022-08-02T08:02:33;3.78;;;1.65;;
45065;SDS011;30830;53.704;10.004;2022-08-02T08:04:59;8.40;;;1.63;;
45065;SDS011;30830;53.704;10.004;2022-08-02T08:07:24;7.85;;;2.28;;
45065;SDS011;30830;53.704;10.004;2022-08-02T08:09:50;3.75;;;1.52;;
45065;SDS011;30830;53.704;10.004;2022-08-02T08:12:16;4.30;;;1.95;;
45065;SDS011;30830;53.704;10.004;2022-08-02T08:14:41;6.00;;;1.63;;
45065;SDS011;30830;53.704;10.004;2022-08-02T08:17:08;6.38;;;1.70;;
45065;SDS011;30830;53.704;10.004;2022-08-02T08:19:33;5.32;;;1.60;;
45065;SDS011;30830;53.704;10.004;2022-08-02T08:22:00;2.13;;;1.23;;
45065;SDS011;30830;53.704;10.004;2022-08-02T08:24:26;3.22;;;1.38;;
45065;SDS011;30830;53.704;10.004;2022-08-02T08:26:52;4.28;;;1.33;;
45065;SDS011;30830;53.704;10.004;2022-08-02T08:29:18;6.43;;;1.70;;
45065;SDS011;30830;53.704;10.004;2022-08-02T08:31:43;2.88;;;1.65;;
45065;SDS011;30830;53.704;10.004;2022-08-02T08:34:09;3.90;;;1.70;;
45065;SDS011;30830;53.704;10.004;2022-08-02T08:36:34;6.70;;;1.60;;
45065;SDS011;30830;53.704;10.004;2022-08-02T08:39:00;4.65;;;1.85;;
45065;SDS011;30830;53.704;10.004;2022-08-02T08:41:26;4.43;;;1.40;;
45065;SDS011;30830;53.704;10.004;2022-08-02T08:43:51;3.35;;;1.15;;
45065;SDS011;30830;53.704;10.004;2022-08-02T08:46:20;1.83;;;0.90;;
45065;SDS011;30830;53.704;10.004;2022-08-02T08:48:51;6.95;;;1.52;;
45065;SDS011;30830;53.704;10.004;2022-08-02T08:51:20;3.83;;;1.88;;
45065;SDS011;30830;53.704;10.004;2022-08-02T08:53:48;6.47;;;1.42;;
45065;SDS011;30830;53.704;10.004;2022-08-02T08:56:16;4.15;;;1.80;;
45065;SDS011;30830;53.704;10.004;2022-08-02T08:58:43;5.07;;;2.00;;
45065;SDS011;30830;53.704;10.004;2022-08-02T09:01:11;4.55;;;1.58;;
45065;SDS011;30830;53.704;10.004;2022-08-02T09:03:38;3.83;;;1.40;;
45065;SDS011;30830;53.704;10.004;2022-08-02T09:06:03;2.90;;;1.40;;
45065;SDS011;30830;53.704;10.004;2022-08-02T09:08:29;8.48;;;1.60;;
45065;SDS011;30830;53.704;10.004;2022-08-02T09:10:56;5.13;;;1.55;;
45065;SDS011;30830;53.704;10.004;2022-08-02T09:13:26;4.28;;;1.55;;
45065;SDS011;30830;53.704;10.004;2022-08-02T09:15:56;2.47;;;1.60;;
45065;SDS011;30830;53.704;10.004;2022-08-02T09:18:33;4.57;;;1.23;;
45065;SDS011;30830;53.704;10.004;2022-08-02T09:21:09;1.77;;;1.00;;
45065;SDS011;30830;53.704;10.004;2022-08-02T09:26:04;4.55;;;1.60;;
45065;SDS011;30830;53.704;10.004;2022-08-02T09:28:32;4.03;;;1.05;;
45065;SDS011;30830;53.704;10.004;2022-08-02T09:33:40;3.38;;;1.20;;
45065;SDS011;30830;53.704;10.004;2022-08-02T09:36:07;2.97;;;1.30;;
45065;SDS011;30830;53.704;10.004;2022-08-02T09:38:38;3.35;;;1.40;;
45065;SDS011;30830;53.704;10.004;2022-08-02T09:41:05;3.63;;;1.40;;
45065;SDS011;30830;53.704;10.004;2022-08-02T09:43:43;4.25;;;1.45;;
45065;SDS011;30830;53.704;10.004;2022-08-02T09:46:10;6.32;;;1.80;;
45065;SDS011;30830;53.704;10.004;2022-08-02T09:48:50;3.33;;;1.17;;
45065;SDS011;30830;53.704;10.004;2022-08-02T09:51:30;4.85;;;1.13;;
45065;SDS011;30830;53.704;10.004;2022-08-02T09:54:01;3.55;;;1.50;;
45065;SDS011;30830;53.704;10.004;2022-08-02T09:56:43;3.08;;;1.48;;
45065;SDS011;30830;53.704;10.004;2022-08-02T09:59:10;3.80;;;1.05;;
45065;SDS011;30830;53.704;10.004;2022-08-02T10:01:36;2.65;;;1.02;;
45065;SDS011;30830;53.704;10.004;2022-08-02T10:04:03;6.65;;;1.30;;
45065;SDS011;30830;53.704;10.004;2022-08-02T10:06:30;4.45;;;1.60;;
45065;SDS011;30830;53.704;10.004;2022-08-02T10:08:57;2.20;;;1.25;;
45065;SDS011;30830;53.704;10.004;2022-08-02T10:11:24;3.13;;;1.10;;
45065;SDS011;30830;53.704;10.004;2022-08-02T10:13:52;3.42;;;1.65;;
45065;SDS011;30830;53.704;10.004;2022-08-02T10:16:19;5.05;;;1.13;;
45065;SDS011;30830;53.704;10.004;2022-08-02T10:18:53;2.10;;;0.80;;
45065;SDS011;30830;53.704;10.004;2022-08-02T10:21:37;4.10;;;1.48;;
45065;SDS011;30830;53.704;10.004;2022-08-02T10:24:09;4.82;;;2.22;;
45065;SDS011;30830;53.704;10.004;2022-08-02T10:26:40;2.72;;;0.95;;
45065;SDS011;30830;53.704;10.004;2022-08-02T10:29:08;4.13;;;0.90;;
45065;SDS011;30830;53.704;10.004;2022-08-02T10:31:42;4.38;;;1.27;;
45065;SDS011;30830;53.704;10.004;2022-08-02T10:34:11;1.98;;;1.17;;
45065;SDS011;30830;53.704;10.004;2022-08-02T10:36:41;3.22;;;1.30;;
45065;SDS011;30830;53.704;10.004;2022-08-02T10:39:09;3.70;;;1.25;;
45065;SDS011;30830;53.704;10.004;2022-08-02T10:41:38;1.63;;;0.90;;
45065;SDS011;30830;53.704;10.004;2022-08-02T10:44:04;2.28;;;1.00;;
45065;SDS011;30830;53.704;10.004;2022-08-02T10:46:30;4.15;;;1.13;;
45065;SDS011;30830;53.704;10.004;2022-08-02T10:54:22;8.40;;;1.15;;
45065;SDS011;30830;53.704;10.004;2022-08-02T10:56:50;3.00;;;1.02;;
45065;SDS011;30830;53.704;10.004;2022-08-02T10:59:26;2.78;;;0.90;;
45065;SDS011;30830;53.704;10.004;2022-08-02T11:02:00;3.05;;;1.35;;
45065;SDS011;30830;53.704;10.004;2022-08-02T11:04:32;1.80;;;0.90;;
45065;SDS011;30830;53.704;10.004;2022-08-02T11:07:19;2.80;;;1.15;;
45065;SDS011;30830;53.704;10.004;2022-08-02T11:09:55;2.70;;;1.20;;
45065;SDS011;30830;53.704;10.004;2022-08-02T11:12:23;2.10;;;0.88;;
45065;SDS011;30830;53.704;10.004;2022-08-02T11:15:02;2.15;;;1.08;;
45065;SDS011;30830;53.704;10.004;2022-08-02T11:20:23;2.55;;;1.10;;
45065;SDS011;30830;53.704;10.004;2022-08-02T11:22:53;3.60;;;1.42;;
45065;SDS011;30830;53.704;10.004;2022-08-02T11:27:51;2.28;;;1.08;;
45065;SDS011;30830;53.704;10.004;2022-08-02T11:30:22;2.30;;;1.02;;
45065;SDS011;30830;53.704;10.004;2022-08-02T11:32:49;2.97;;;0.88;;
45065;SDS011;30830;53.704;10.004;2022-08-02T11:35:18;1.90;;;1.00;;
45065;SDS011;30830;53.704;10.004;2022-08-02T11:37:44;3.83;;;1.10;;
45065;SDS011;30830;53.704;10.004;2022-08-02T11:40:11;2.13;;;1.02;;
45065;SDS011;30830;53.704;10.004;2022-08-02T11:42:40;3.10;;;1.25;;
45065;SDS011;30830;53.704;10.004;2022-08-02T11:45:08;4.07;;;1.15;;
45065;SDS011;30830;53.704;10.004;2022-08-02T11:47:45;2.25;;;1.10;;
45065;SDS011;30830;53.704;10.004;2022-08-02T11:50:12;2.35;;;0.98;;
45065;SDS011;30830;53.704;10.004;2022-08-02T11:52:38;2.60;;;1.10;;
45065;SDS011;30830;53.704;10.004;2022-08-02T11:55:07;2.83;;;0.75;;
45065;SDS011;30830;53.704;10.004;2022-08-02T11:57:35;2.08;;;1.08;;
45065;SDS011;30830;53.704;10.004;2022-08-02T12:00:01;2.15;;;0.93;;
45065;SDS011;30830;53.704;10.004;2022-08-02T12:02:29;2.42;;;1.27;;
45065;SDS011;30830;53.704;10.004;2022-08-02T12:04:57;3.95;;;1.48;;
45065;SDS011;30830;53.704;10.004;2022-08-02T12:07:35;1.35;;;0.90;;
45065;SDS011;30830;53.704;10.004;2022-08-02T12:10:06;4.40;;;1.50;;
45065;SDS011;30830;53.704;10.004;2022-08-02T12:12:53;2.15;;;1.08;;
45065;SDS011;30830;53.704;10.004;2022-08-02T12:17:58;4.57;;;1.20;;
45065;SDS011;30830;53.704;10.004;2022-08-02T12:20:42;2.95;;;1.02;;
45065;SDS011;30830;53.704;10.004;2022-08-02T12:23:08;2.63;;;1.52;;
45065;SDS011;30830;53.704;10.004;2022-08-02T12:25:34;2.17;;;0.90;;
45065;SDS011;30830;53.704;10.004;2022-08-02T12:28:15;3.75;;;1.77;;
45065;SDS011;30830;53.704;10.004;2022-08-02T12:30:51;1.50;;;0.88;;
45065;SDS011;30830;53.704;10.004;2022-08-02T12:33:25;2.85;;;1.45;;
45065;SDS011;30830;53.704;10.004;2022-08-02T12:35:52;1.63;;;0.93;;
45065;SDS011;30830;53.704;10.004;2022-08-02T12:38:18;2.00;;;1.13;;
45065;SDS011;30830;53.704;10.004;2022-08-02T12:40:45;3.80;;;1.45;;
45065;SDS011;30830;53.704;10.004;2022-08-02T12:43:21;4.68;;;1.20;;
45065;SDS011;30830;53.704;10.004;2022-08-02T12:45:49;4.30;;;1.17;;
45065;SDS011;30830;53.704;10.004;2022-08-02T12:48:30;1.65;;;0.90;;
45065;SDS011;30830;53.704;10.004;2022-08-02T12:51:20;1.42;;;1.10;;
45065;SDS011;30830;53.704;10.004;2022-08-02T12:53:48;2.63;;;1.25;;
45065;SDS011;30830;53.704;10.004;2022-08-02T12:56:31;3.85;;;1.35;;
45065;SDS011;30830;53.704;10.004;2022-08-02T12:59:00;2.38;;;1.33;;
45065;SDS011;30830;53.704;10.004;2022-08-02T13:01:27;2.60;;;1.10;;
45065;SDS011;30830;53.704;10.004;2022-08-02T13:03:54;2.15;;;1.20;;
45065;SDS011;30830;53.704;10.004;2022-08-02T13:06:20;2.50;;;1.00;;
45065;SDS011;30830;53.704;10.004;2022-08-02T13:08:46;2.72;;;1.17;;
45065;SDS011;30830;53.704;10.004;2022-08-02T13:11:13;2.58;;;1.58;;
45065;SDS011;30830;53.704;10.004;2022-08-02T13:13:39;3.42;;;1.10;;
45065;SDS011;30830;53.704;10.004;2022-08-02T13:16:06;1.27;;;0.98;;
45065;SDS011;30830;53.704;10.004;2022-08-02T13:18:35;3.30;;;1.27;;
45065;SDS011;30830;53.704;10.004;2022-08-02T13:21:00;3.60;;;1.08;;
45065;SDS011;30830;53.704;10.004;2022-08-02T13:23:28;3.45;;;1.63;;
45065;SDS011;30830;53.704;10.004;2022-08-02T13:25:54;1.38;;;0.90;;
45065;SDS011;30830;53.704;10.004;2022-08-02T13:28:20;6.18;;;1.30;;
45065;SDS011;30830;53.704;10.004;2022-08-02T13:30:46;3.40;;;1.23;;
45065;SDS011;30830;53.704;10.004;2022-08-02T13:33:12;3.10;;;1.50;;
45065;SDS011;30830;53.704;10.004;2022-08-02T13:35:38;4.43;;;1.48;;
45065;SDS011;30830;53.704;10.004;2022-08-02T13:38:04;1.88;;;1.30;;
45065;SDS011;30830;53.704;10.004;2022-08-02T13:40:30;1.73;;;1.05;;
45065;SDS011;30830;53.704;10.004;2022-08-02T13:42:56;2.47;;;1.27;;
45065;SDS011;30830;53.704;10.004;2022-08-02T13:45:22;4.45;;;1.45;;
45065;SDS011;30830;53.704;10.004;2022-08-02T13:47:48;3.78;;;1.00;;
45065;SDS011;30830;53.704;10.004;2022-08-02T13:50:14;1.80;;;1.25;;
45065;SDS011;30830;53.704;10.004;2022-08-02T13:52:40;2.20;;;0.82;;
45065;SDS011;30830;53.704;10.004;2022-08-02T13:55:06;2.33;;;1.08;;
45065;SDS011;30830;53.704;10.004;2022-08-02T13:57:32;2.40;;;1.00;;
45065;SDS011;30830;53.704;10.004;2022-08-02T13:59:58;5.65;;;1.33;;
45065;SDS011;30830;53.704;10.004;2022-08-02T14:02:24;2.92;;;1.27;;
45065;SDS011;30830;53.704;10.004;2022-08-02T14:04:51;2.45;;;1.08;;
45065;SDS011;30830;53.704;10.004;2022-08-02T14:07:17;1.15;;;0.73;;
45065;SDS011;30830;53.704;10.004;2022-08-02T14:09:43;1.10;;;0.90;;
45065;SDS011;30830;53.704;10.004;2022-08-02T14:12:09;1.77;;;1.08;;
45065;SDS011;30830;53.704;10.004;2022-08-02T14:14:34;1.70;;;0.90;;
45065;SDS011;30830;53.704;10.004;2022-08-02T14:17:00;1.95;;;0.85;;
45065;SDS011;30830;53.704;10.004;2022-08-02T14:19:26;1.85;;;1.20;;
45065;SDS011;30830;53.704;10.004;2022-08-02T14:21:51;1.30;;;1.10;;
45065;SDS011;30830;53.704;10.004;2022-08-02T14:24:18;1.65;;;1.20;;
45065;SDS011;30830;53.704;10.004;2022-08-02T14:26:45;2.88;;;1.17;;
45065;SDS011;30830;53.704;10.004;2022-08-02T14:29:12;1.85;;;1.13;;
45065;SDS011;30830;53.704;10.004;2022-08-02T14:31:38;2.47;;;1.50;;
45065;SDS011;30830;53.704;10.004;2022-08-02T14:34:03;2.15;;;0.88;;
45065;SDS011;30830;53.704;10.004;2022-08-02T14:36:29;2.35;;;0.93;;
45065;SDS011;30830;53.704;10.004;2022-08-02T14:38:55;3.75;;;1.27;;
45065;SDS011;30830;53.704;10.004;2022-08-02T14:41:21;1.17;;;0.90;;
45065;SDS011;30830;53.704;10.004;2022-08-02T14:43:47;2.00;;;1.27;;
45065;SDS011;30830;53.704;10.004;2022-08-02T14:46:28;2.03;;;0.98;;
45065;SDS011;30830;53.704;10.004;2022-08-02T14:48:58;1.38;;;1.10;;
45065;SDS011;30830;53.704;10.004;2022-08-02T14:51:28;1.48;;;1.30;;
45065;SDS011;30830;53.704;10.004;2022-08-02T14:53:55;4.72;;;1.55;;
45065;SDS011;30830;53.704;10.004;2022-08-02T14:56:20;1.45;;;1.02;;
45065;SDS011;30830;53.704;10.004;2022-08-02T14:58:46;1.58;;;1.38;;
45065;SDS011;30830;53.704;10.004;2022-08-02T15:01:13;1.50;;;1.38;;
45065;SDS011;30830;53.704;10.004;2022-08-02T15:03:38;2.35;;;1.10;;
45065;SDS011;30830;53.704;10.004;2022-08-02T15:06:04;3.22;;;1.50;;
45065;SDS011;30830;53.704;10.004;2022-08-02T15:08:30;1.23;;;1.02;;
45065;SDS011;30830;53.704;10.004;2022-08-02T15:10:56;3.15;;;1.30;;
45065;SDS011;30830;53.704;10.004;2022-08-02T15:13:21;3.40;;;1.75;;
45065;SDS011;30830;53.704;10.004;2022-08-02T15:15:47;1.70;;;1.20;;